createdAt,value
2023-01-05T00:00:30.835Z,94.10
2023-01-05T00:01:30.795Z,93.69
2023-01-05T00:02:30.876Z,93.38
2023-01-05T00:03:30.791Z,93.59
2023-01-05T00:04:30.807Z,93.69
2023-01-05T00:05:30.744Z,93.69
2023-01-05T00:06:30.767Z,93.38
2023-01-05T00:07:30.711Z,93.38
2023-01-05T00:08:36.703Z,93.48
2023-01-05T00:09:31.729Z,93.48
2023-01-05T00:10:30.700Z,93.54
2023-01-05T00:11:30.685Z,93.38
2023-01-05T00:12:30.682Z,93.59
2023-01-05T00:13:30.676Z,93.18
2023-01-05T00:14:30.637Z,93.18
2023-01-05T00:15:30.642Z,93.48
2023-01-05T00:16:30.682Z,93.18
2023-01-05T00:17:30.606Z,92.77
2023-01-05T00:18:30.613Z,92.87
2023-01-05T00:19:30.591Z,92.87
2023-01-05T00:20:30.577Z,92.87
2023-01-05T00:21:30.559Z,92.56
2023-01-05T00:22:30.636Z,93.18
2023-01-05T00:23:30.564Z,93.18
2023-01-05T00:24:30.556Z,92.77
2023-01-05T00:25:30.541Z,92.77
2023-01-05T00:26:30.507Z,92.87
2023-01-05T00:27:30.493Z,92.77
2023-01-05T00:28:30.506Z,92.56
2023-01-05T00:29:30.481Z,92.97
2023-01-05T00:30:30.473Z,92.46
2023-01-05T00:31:30.490Z,93.28
2023-01-05T00:32:30.442Z,93.48
2023-01-05T00:33:30.444Z,93.59
2023-01-05T00:34:30.418Z,93.38
2023-01-05T00:35:30.416Z,93.28
2023-01-05T00:36:30.399Z,93.59
2023-01-05T00:37:30.381Z,93.38
2023-01-05T00:38:30.373Z,93.79
2023-01-05T00:39:30.372Z,93.38
2023-01-05T00:40:30.361Z,93.48
2023-01-05T00:41:30.356Z,93.59
2023-01-05T00:42:30.331Z,93.38
2023-01-05T00:43:30.316Z,93.28
2023-01-05T00:44:30.312Z,93.38
2023-01-05T00:45:30.436Z,93.28
2023-01-05T00:46:30.281Z,93.28
2023-01-05T00:47:30.288Z,93.28
2023-01-05T00:48:30.263Z,93.28
2023-01-05T00:49:30.255Z,93.28
2023-01-05T00:50:30.240Z,92.97
2023-01-05T00:51:30.243Z,92.66
2023-01-05T00:52:30.239Z,92.87
2023-01-05T00:53:30.228Z,92.87
2023-01-05T00:54:30.199Z,92.97
2023-01-05T00:55:30.184Z,92.87
2023-01-05T00:56:30.192Z,92.52
2023-01-05T00:57:30.185Z,92.83
2023-01-05T00:58:30.163Z,92.56
2023-01-05T00:59:30.141Z,92.56
2023-01-05T01:00:30.146Z,92.56
2023-01-05T01:01:30.237Z,92.66
2023-01-05T01:02:30.189Z,92.62
2023-01-05T01:03:30.174Z,92.66
2023-01-05T01:04:30.085Z,92.66
2023-01-05T01:05:30.075Z,92.36
2023-01-05T01:06:30.088Z,92.66
2023-01-05T01:07:30.072Z,92.36
2023-01-05T01:08:30.076Z,92.56
2023-01-05T01:09:30.070Z,92.46
2023-01-05T01:10:30.047Z,92.56
2023-01-05T01:11:30.004Z,92.72
2023-01-05T01:12:29.997Z,92.46
2023-01-05T01:13:30.007Z,92.46
2023-01-05T01:14:29.975Z,92.25
2023-01-05T01:15:29.974Z,92.77
2023-01-05T01:16:30.012Z,92.56
2023-01-05T01:17:29.952Z,92.66
2023-01-05T01:18:29.937Z,92.87
2023-01-05T01:19:29.922Z,92.36
2023-01-05T01:20:29.908Z,92.32
2023-01-05T01:21:29.901Z,92.56
2023-01-05T01:22:29.889Z,92.36
2023-01-05T01:23:29.871Z,92.36
2023-01-05T01:24:29.870Z,92.56
2023-01-05T01:25:29.893Z,92.42
2023-01-05T01:26:29.839Z,92.15
2023-01-05T01:27:29.822Z,92.21
2023-01-05T01:28:29.819Z,92.56
2023-01-05T01:29:29.831Z,92.56
2023-01-05T01:30:29.833Z,92.56
2023-01-05T01:31:29.798Z,92.46
2023-01-05T01:32:29.787Z,92.46
2023-01-05T01:33:29.763Z,92.25
2023-01-05T01:34:29.756Z,92.36
2023-01-05T01:35:29.752Z,92.56
2023-01-05T01:36:29.749Z,92.46
2023-01-05T01:37:29.713Z,92.46
2023-01-05T01:38:29.723Z,92.46
2023-01-05T01:39:29.698Z,92.36
2023-01-05T01:40:29.693Z,92.66
2023-01-05T01:41:29.697Z,92.46
2023-01-05T01:42:29.677Z,92.56
2023-01-05T01:43:29.655Z,92.25
2023-01-05T01:44:29.641Z,92.36
2023-01-05T01:45:29.695Z,92.36
2023-01-05T01:46:29.709Z,92.46
2023-01-05T01:47:29.616Z,92.87
2023-01-05T01:48:29.612Z,92.56
2023-01-05T01:49:29.588Z,92.36
2023-01-05T01:50:29.583Z,92.46
2023-01-05T01:51:29.560Z,92.36
2023-01-05T01:52:29.558Z,92.56
2023-01-05T01:53:29.544Z,92.56
2023-01-05T01:54:29.553Z,92.56
2023-01-05T01:55:29.524Z,92.46
2023-01-05T01:56:29.508Z,92.56
2023-01-05T01:57:29.504Z,92.66
2023-01-05T01:58:29.499Z,92.36
2023-01-05T01:59:29.472Z,92.66
2023-01-05T02:01:42.609Z,92.87
2023-01-05T02:02:42.480Z,93.18
2023-01-05T02:03:42.358Z,93.79
2023-01-05T02:04:42.444Z,93.28
2023-01-05T02:05:42.340Z,93.93
2023-01-05T02:06:42.328Z,94.51
2023-01-05T02:07:42.319Z,94.85
2023-01-05T02:08:42.312Z,94.96
2023-01-05T02:09:42.281Z,94.45
2023-01-05T02:10:42.279Z,95.17
2023-01-05T02:11:42.288Z,95.26
2023-01-05T02:12:42.263Z,94.96
2023-01-05T02:13:42.267Z,95.06
2023-01-05T02:14:42.227Z,95.37
2023-01-05T02:15:42.216Z,95.82
2023-01-05T02:16:42.305Z,95.62
2023-01-05T02:17:42.236Z,95.41
2023-01-05T02:18:42.190Z,96.13
2023-01-05T02:19:42.187Z,95.72
2023-01-05T02:20:42.166Z,95.67
2023-01-05T02:21:42.149Z,96.03
2023-01-05T02:22:42.138Z,96.23
2023-01-05T02:23:42.157Z,95.92
2023-01-05T02:24:42.120Z,96.28
2023-01-05T02:25:42.130Z,95.92
2023-01-05T02:26:42.094Z,96.13
2023-01-05T02:27:42.091Z,96.48
2023-01-05T02:28:42.093Z,96.03
2023-01-05T02:29:42.096Z,96.13
2023-01-05T02:30:42.142Z,96.03
2023-01-05T02:31:42.087Z,95.87
2023-01-05T02:32:42.025Z,96.23
2023-01-05T02:33:42.059Z,95.92
2023-01-05T02:34:42.033Z,95.82
2023-01-05T02:35:42.005Z,96.38
2023-01-05T02:36:41.986Z,96.07
2023-01-05T02:37:41.991Z,95.97
2023-01-05T02:38:41.957Z,95.97
2023-01-05T02:39:41.964Z,96.07
2023-01-05T02:40:41.960Z,96.07
2023-01-05T02:41:41.943Z,96.17
2023-01-05T02:42:41.963Z,96.28
2023-01-05T02:43:41.926Z,96.07
2023-01-05T02:44:41.905Z,96.48
2023-01-05T02:45:41.915Z,96.58
2023-01-05T02:46:41.870Z,96.58
2023-01-05T02:47:41.863Z,97.30
2023-01-05T02:48:41.848Z,97.30
2023-01-05T02:49:41.859Z,97.30
2023-01-05T02:50:41.831Z,96.99
2023-01-05T02:51:41.837Z,96.89
2023-01-05T02:52:41.799Z,96.89
2023-01-05T02:53:41.802Z,96.99
2023-01-05T02:54:41.777Z,96.89
2023-01-05T02:55:41.796Z,97.40
2023-01-05T02:56:41.753Z,97.30
2023-01-05T02:57:41.747Z,97.30
2023-01-05T02:58:41.774Z,97.81
2023-01-05T02:59:41.742Z,97.81
2023-01-05T03:00:41.760Z,97.45
2023-01-05T03:01:41.872Z,97.50
2023-01-05T03:02:41.924Z,97.20
2023-01-05T03:03:41.788Z,97.45
2023-01-05T03:04:41.664Z,98.07
2023-01-05T03:05:41.686Z,98.43
2023-01-05T03:06:41.666Z,98.12
2023-01-05T03:07:41.633Z,98.43
2023-01-05T03:08:41.617Z,98.12
2023-01-05T03:09:41.616Z,98.12
2023-01-05T03:10:41.619Z,98.12
2023-01-05T03:11:41.621Z,98.22
2023-01-05T03:12:41.573Z,98.16
2023-01-05T03:13:41.571Z,98.37
2023-01-05T03:14:41.548Z,98.16
2023-01-05T03:15:41.568Z,98.37
2023-01-05T03:16:41.553Z,98.27
2023-01-05T03:17:41.555Z,98.22
2023-01-05T03:18:41.506Z,98.02
2023-01-05T03:19:41.488Z,98.02
2023-01-05T03:20:41.486Z,97.91
2023-01-05T03:21:41.601Z,98.27
2023-01-05T03:22:41.504Z,98.07
2023-01-05T03:23:41.488Z,98.58
2023-01-05T03:24:41.449Z,98.58
2023-01-05T03:25:41.434Z,98.58
2023-01-05T03:26:41.424Z,98.68
2023-01-05T03:27:41.418Z,98.43
2023-01-05T03:28:41.415Z,98.02
2023-01-05T03:29:41.395Z,98.47
2023-01-05T03:30:41.425Z,98.58
2023-01-05T03:31:41.389Z,98.47
2023-01-05T03:32:41.348Z,98.68
2023-01-05T03:33:41.345Z,98.53
2023-01-05T03:34:41.346Z,98.99
2023-01-05T03:35:41.354Z,98.68
2023-01-05T03:36:41.300Z,98.68
2023-01-05T03:37:41.332Z,98.27
2023-01-05T03:38:41.291Z,98.37
2023-01-05T03:39:41.285Z,98.27
2023-01-05T03:40:41.258Z,98.16
2023-01-05T03:41:41.285Z,98.16
2023-01-05T03:42:41.236Z,98.22
2023-01-05T03:43:41.239Z,98.37
2023-01-05T03:44:41.214Z,98.07
2023-01-05T03:45:41.220Z,98.58
2023-01-05T03:46:41.259Z,98.07
2023-01-05T03:47:41.200Z,97.65
2023-01-05T03:48:41.167Z,97.45
2023-01-05T03:49:41.159Z,97.40
2023-01-05T03:50:41.156Z,97.61
2023-01-05T03:51:42.207Z,97.91
2023-01-05T03:52:41.144Z,97.71
2023-01-05T03:53:41.145Z,97.65
2023-01-05T03:54:41.100Z,97.61
2023-01-05T03:55:41.099Z,97.30
2023-01-05T03:56:41.085Z,97.91
2023-01-05T03:57:41.078Z,97.20
2023-01-05T03:58:41.065Z,97.20
2023-01-05T03:59:41.049Z,97.71
2023-01-05T04:00:41.036Z,97.40
2023-01-05T04:01:41.258Z,97.81
2023-01-05T04:02:41.200Z,97.65
2023-01-05T04:03:41.100Z,97.61
2023-01-05T04:04:41.008Z,97.40
2023-01-05T04:05:40.980Z,97.50
2023-01-05T04:06:40.966Z,97.61
2023-01-05T04:07:40.956Z,98.02
2023-01-05T04:08:40.954Z,97.81
2023-01-05T04:09:40.956Z,97.61
2023-01-05T04:10:40.933Z,97.91
2023-01-05T04:11:40.915Z,97.50
2023-01-05T04:12:40.904Z,97.40
2023-01-05T04:13:40.908Z,97.45
2023-01-05T04:14:40.887Z,97.45
2023-01-05T04:15:40.910Z,97.14
2023-01-05T04:16:40.899Z,97.96
2023-01-05T04:17:40.846Z,97.50
2023-01-05T04:18:40.830Z,97.30
2023-01-05T04:19:40.863Z,97.55
2023-01-05T04:20:40.828Z,97.61
2023-01-05T04:21:40.796Z,97.75
2023-01-05T04:22:40.795Z,97.24
2023-01-05T04:23:40.830Z,97.86
2023-01-05T04:24:40.766Z,97.55
2023-01-05T04:25:40.800Z,97.50
2023-01-05T04:26:40.753Z,97.55
2023-01-05T04:27:40.731Z,97.55
2023-01-05T04:28:40.719Z,97.40
2023-01-05T04:29:40.710Z,97.40
2023-01-05T04:30:40.703Z,97.40
2023-01-05T04:31:40.742Z,97.30
2023-01-05T04:32:40.690Z,98.02
2023-01-05T04:33:40.667Z,97.81
2023-01-05T04:34:40.648Z,97.71
2023-01-05T04:35:40.680Z,98.02
2023-01-05T04:36:40.652Z,97.20
2023-01-05T04:37:40.647Z,97.71
2023-01-05T04:38:40.603Z,97.40
2023-01-05T04:39:40.596Z,97.20
2023-01-05T04:40:40.594Z,97.81
2023-01-05T04:41:40.601Z,97.40
2023-01-05T04:42:40.568Z,97.50
2023-01-05T04:43:40.561Z,97.45
2023-01-05T04:44:40.540Z,97.75
2023-01-05T04:45:40.538Z,97.65
2023-01-05T04:46:40.606Z,98.37
2023-01-05T04:47:40.512Z,97.96
2023-01-05T04:48:40.492Z,98.37
2023-01-05T04:49:40.495Z,98.33
2023-01-05T04:50:40.475Z,98.68
2023-01-05T04:51:40.491Z,98.16
2023-01-05T04:52:40.445Z,98.27
2023-01-05T04:53:40.440Z,98.53
2023-01-05T04:54:40.422Z,98.68
2023-01-05T04:55:40.429Z,98.58
2023-01-05T04:56:40.433Z,98.88
2023-01-05T04:57:40.535Z,98.88
2023-01-05T04:58:40.380Z,98.68
2023-01-05T04:59:40.386Z,98.78
2023-01-05T05:00:40.362Z,98.78
2023-01-05T05:01:40.484Z,98.63
2023-01-05T05:02:40.430Z,99.15
2023-01-05T05:03:40.362Z,98.99
2023-01-05T05:04:40.314Z,98.88
2023-01-05T05:05:40.305Z,98.99
2023-01-05T05:06:40.296Z,98.99
2023-01-05T05:07:40.299Z,99.19
2023-01-05T05:08:40.275Z,98.88
2023-01-05T05:09:40.273Z,99.50
2023-01-05T05:10:40.250Z,99.29
2023-01-05T05:11:40.243Z,98.99
2023-01-05T05:12:40.234Z,99.09
2023-01-05T05:13:40.257Z,99.40
2023-01-05T05:14:40.204Z,99.19
2023-01-05T05:15:40.283Z,98.63
2023-01-05T05:16:40.183Z,99.09
2023-01-05T05:17:40.186Z,99.09
2023-01-05T05:18:40.177Z,99.99
2023-01-05T05:19:40.160Z,99.29
2023-01-05T05:20:40.133Z,99.60
2023-01-05T05:21:40.141Z,99.50
2023-01-05T05:22:40.111Z,99.29
2023-01-05T05:23:40.116Z,99.29
2023-01-05T05:24:40.098Z,99.40
2023-01-05T05:25:40.117Z,99.66
2023-01-05T05:26:40.084Z,99.70
2023-01-05T05:27:40.137Z,99.40
2023-01-05T05:28:40.068Z,99.19
2023-01-05T05:29:40.057Z,99.29
2023-01-05T05:30:40.041Z,99.55
2023-01-05T05:31:40.060Z,99.19
2023-01-05T05:32:44.116Z,99.70
2023-01-05T05:33:40.022Z,99.04
2023-01-05T05:34:39.976Z,99.60
2023-01-05T05:35:39.970Z,99.09
2023-01-05T05:36:39.955Z,99.40
2023-01-05T05:37:39.951Z,99.60
2023-01-05T05:38:39.943Z,99.40
2023-01-05T05:39:39.937Z,99.50
2023-01-05T05:40:39.909Z,99.29
2023-01-05T05:41:39.909Z,99.40
2023-01-05T05:42:39.883Z,99.70
2023-01-05T05:43:39.884Z,99.50
2023-01-05T05:44:39.895Z,99.50
2023-01-05T05:45:42.576Z,99.40
2023-01-05T05:46:40.949Z,99.70
2023-01-05T05:47:39.832Z,99.99
2023-01-05T05:48:39.818Z,99.70
2023-01-05T05:49:39.821Z,99.60
2023-01-05T05:50:39.819Z,99.99
2023-01-05T05:51:39.786Z,99.99
2023-01-05T05:52:39.772Z,99.99
2023-01-05T05:53:39.763Z,99.99
2023-01-05T05:54:39.766Z,99.99
2023-01-05T05:55:39.767Z,99.99
2023-01-05T05:56:39.730Z,99.99
2023-01-05T05:57:39.723Z,99.99
2023-01-05T05:58:39.709Z,99.99
2023-01-05T05:59:39.694Z,99.99
2023-01-05T06:00:39.683Z,99.99
2023-01-05T06:01:39.838Z,99.99
2023-01-05T06:02:39.809Z,99.99
2023-01-05T06:03:39.742Z,99.99
2023-01-05T06:04:39.638Z,99.99
2023-01-05T06:05:39.644Z,99.99
2023-01-05T06:06:39.615Z,99.99
2023-01-05T06:07:39.614Z,99.99
2023-01-05T06:08:39.602Z,99.99
2023-01-05T06:09:39.584Z,99.99
2023-01-05T06:10:39.565Z,99.99
2023-01-05T06:11:39.592Z,99.99
2023-01-05T06:12:39.547Z,99.99
2023-01-05T06:13:39.537Z,99.99
2023-01-05T06:14:39.532Z,99.99
2023-01-05T06:15:39.518Z,99.99
2023-01-05T06:16:39.614Z,99.99
2023-01-05T06:17:39.537Z,99.99
2023-01-05T06:18:39.502Z,99.99
2023-01-05T06:19:39.471Z,99.99
2023-01-05T06:20:39.461Z,99.99
2023-01-05T06:21:39.453Z,99.99
2023-01-05T06:22:39.441Z,99.99
2023-01-05T06:23:39.423Z,99.99
2023-01-05T06:24:39.424Z,99.99
2023-01-05T06:25:39.399Z,99.99
2023-01-05T06:26:39.391Z,99.99
2023-01-05T06:27:39.383Z,99.99
2023-01-05T06:28:39.375Z,99.99
2023-01-05T06:29:39.371Z,99.99
2023-01-05T06:30:39.369Z,99.99
2023-01-05T06:31:39.393Z,99.99
2023-01-05T06:32:39.316Z,99.99
2023-01-05T06:33:39.342Z,99.99
2023-01-05T06:34:39.308Z,99.99
2023-01-05T06:35:39.302Z,99.99
2023-01-05T06:36:39.291Z,99.99
2023-01-05T06:37:39.268Z,99.99
2023-01-05T06:38:39.256Z,99.99
2023-01-05T06:39:39.253Z,99.99
2023-01-05T06:40:39.236Z,99.99
2023-01-05T06:41:39.225Z,99.99
2023-01-05T06:42:39.232Z,99.99
2023-01-05T06:43:39.198Z,99.99
2023-01-05T06:44:39.199Z,99.99
2023-01-05T06:45:39.266Z,99.99
2023-01-05T06:46:39.172Z,99.99
2023-01-05T06:47:39.159Z,99.99
2023-01-05T06:48:39.162Z,99.99
2023-01-05T06:49:39.199Z,99.99
2023-01-05T06:50:39.128Z,99.99
2023-01-05T06:51:39.114Z,99.99
2023-01-05T06:52:39.104Z,99.99
2023-01-05T06:53:39.086Z,99.99
2023-01-05T06:54:39.091Z,99.99
2023-01-05T06:55:39.068Z,99.99
2023-01-05T06:56:39.071Z,99.99
2023-01-05T06:57:39.043Z,99.99
2023-01-05T06:58:39.032Z,99.99
2023-01-05T06:59:39.049Z,99.99
2023-01-05T07:00:39.073Z,99.99
2023-01-05T07:01:39.240Z,99.99
2023-01-05T07:02:39.002Z,99.99
2023-01-05T07:03:39.037Z,99.99
2023-01-05T07:04:38.961Z,99.99
2023-01-05T07:05:38.970Z,99.99
2023-01-05T07:06:38.964Z,99.99
2023-01-05T07:07:38.936Z,99.99
2023-01-05T07:08:38.918Z,99.99
2023-01-05T07:09:38.905Z,99.99
2023-01-05T07:10:38.897Z,99.99
2023-01-05T07:11:38.878Z,99.99
2023-01-05T07:12:38.897Z,99.99
2023-01-05T07:13:38.868Z,99.99
2023-01-05T07:14:38.852Z,99.99
2023-01-05T07:15:38.841Z,99.99
2023-01-05T07:16:38.897Z,99.99
2023-01-05T07:17:38.838Z,99.99
2023-01-05T07:18:38.831Z,99.99
2023-01-05T07:19:38.797Z,99.99
2023-01-05T07:20:38.781Z,99.99
2023-01-05T07:21:38.799Z,99.99
2023-01-05T07:22:38.760Z,99.99
2023-01-05T07:23:38.789Z,99.99
2023-01-05T07:24:38.738Z,99.99
2023-01-05T07:25:38.726Z,99.99
2023-01-05T07:26:38.717Z,99.99
2023-01-05T07:27:38.716Z,99.99
2023-01-05T07:28:38.715Z,99.99
2023-01-05T07:29:38.676Z,99.99
2023-01-05T07:30:38.673Z,99.99
2023-01-05T07:31:38.735Z,99.99
2023-01-05T07:32:38.800Z,99.99
2023-01-05T07:33:40.349Z,99.99
2023-01-05T07:34:38.623Z,99.99
2023-01-05T07:35:38.609Z,99.99
2023-01-05T07:36:38.598Z,99.99
2023-01-05T07:37:38.611Z,99.99
2023-01-05T07:38:38.600Z,99.99
2023-01-05T07:39:38.571Z,99.99
2023-01-05T07:40:38.556Z,99.99
2023-01-05T07:41:38.543Z,99.99
2023-01-05T07:42:38.548Z,99.99
2023-01-05T07:43:38.528Z,99.99
2023-01-05T07:44:38.531Z,99.99
2023-01-05T07:45:38.574Z,99.99
2023-01-05T07:46:38.492Z,99.99
2023-01-05T07:47:38.480Z,99.99
2023-01-05T07:48:38.485Z,99.99
2023-01-05T07:49:38.458Z,99.99
2023-01-05T07:50:38.465Z,99.99
2023-01-05T07:51:38.447Z,99.99
2023-01-05T07:52:38.419Z,99.99
2023-01-05T07:53:43.850Z,99.99
2023-01-05T07:54:39.421Z,99.99
2023-01-05T07:55:38.411Z,99.99
2023-01-05T07:56:38.378Z,99.99
2023-01-05T07:57:38.363Z,99.99
2023-01-05T07:58:38.362Z,99.99
2023-01-05T07:59:38.350Z,99.99
2023-01-05T08:00:38.344Z,99.99
2023-01-05T08:01:38.490Z,99.99
2023-01-05T08:02:45.915Z,99.99
2023-01-05T08:03:38.324Z,99.99
2023-01-05T08:04:38.356Z,99.99
2023-01-05T08:05:38.277Z,99.99
2023-01-05T08:06:38.285Z,99.99
2023-01-05T08:07:38.310Z,99.99
2023-01-05T08:08:38.264Z,99.99
2023-01-05T08:09:38.272Z,99.99
2023-01-05T08:10:38.239Z,99.99
2023-01-05T08:11:38.207Z,99.99
2023-01-05T08:12:38.216Z,99.99
2023-01-05T08:13:38.184Z,99.99
2023-01-05T08:14:38.192Z,99.99
2023-01-05T08:15:38.171Z,99.99
2023-01-05T08:16:38.220Z,99.99
2023-01-05T08:17:38.141Z,99.99
2023-01-05T08:18:38.136Z,99.99
2023-01-05T08:19:38.116Z,99.99
2023-01-05T08:20:38.105Z,99.99
2023-01-05T08:21:38.113Z,99.99
2023-01-05T08:22:38.139Z,99.99
2023-01-05T08:23:38.085Z,99.99
2023-01-05T08:24:38.078Z,99.99
2023-01-05T08:25:38.069Z,99.99
2023-01-05T08:26:38.087Z,99.99
2023-01-05T08:27:38.052Z,99.99
2023-01-05T08:28:38.023Z,99.99
2023-01-05T08:29:38.012Z,99.99
2023-01-05T08:30:37.994Z,99.99
2023-01-05T08:31:38.065Z,99.99
2023-01-05T08:32:37.994Z,99.99
2023-01-05T08:33:37.992Z,99.99
2023-01-05T08:34:37.978Z,99.99
2023-01-05T08:35:37.936Z,99.99
2023-01-05T08:36:37.934Z,99.99
2023-01-05T08:37:37.916Z,99.99
2023-01-05T08:38:37.935Z,99.99
2023-01-05T08:39:37.899Z,99.99
2023-01-05T08:40:37.950Z,99.99
2023-01-05T08:41:37.904Z,99.99
2023-01-05T08:42:37.878Z,99.99
2023-01-05T08:43:37.870Z,99.99
2023-01-05T08:44:37.853Z,99.99
2023-01-05T08:45:37.898Z,99.99
2023-01-05T08:46:37.827Z,99.99
2023-01-05T08:47:37.812Z,99.99
2023-01-05T08:48:37.828Z,99.99
2023-01-05T08:49:37.778Z,99.99
2023-01-05T08:50:37.774Z,99.99
2023-01-05T08:51:37.784Z,99.99
2023-01-05T08:52:37.767Z,99.99
2023-01-05T08:53:37.735Z,99.99
2023-01-05T08:54:37.738Z,99.99
2023-01-05T08:55:37.720Z,99.99
2023-01-05T08:56:39.319Z,99.99
2023-01-05T08:57:37.708Z,99.99
2023-01-05T08:58:37.825Z,99.99
2023-01-05T08:59:37.665Z,99.99
2023-01-05T09:00:37.664Z,99.99
2023-01-05T09:01:37.872Z,99.99
2023-01-05T09:02:37.826Z,99.99
2023-01-05T09:03:37.724Z,99.99
2023-01-05T09:04:37.644Z,99.99
2023-01-05T09:05:37.615Z,99.99
2023-01-05T09:06:37.587Z,99.99
2023-01-05T09:07:37.590Z,99.99
2023-01-05T09:08:37.567Z,99.99
2023-01-05T09:09:37.569Z,99.99
2023-01-05T09:10:37.553Z,99.99
2023-01-05T09:11:37.534Z,99.99
2023-01-05T09:12:37.540Z,99.99
2023-01-05T09:13:37.530Z,99.99
2023-01-05T09:14:37.499Z,99.99
2023-01-05T09:15:37.515Z,99.99
2023-01-05T09:17:08.061Z,99.99
2023-01-05T09:17:38.555Z,99.99
2023-01-05T09:18:37.453Z,99.99
2023-01-05T09:19:37.453Z,99.99
2023-01-05T09:20:40.030Z,99.99
2023-01-05T09:21:37.426Z,99.99
2023-01-05T09:22:37.412Z,99.99
2023-01-05T09:23:37.402Z,99.99
2023-01-05T09:24:37.382Z,99.99
2023-01-05T09:25:37.401Z,99.99
2023-01-05T09:26:37.394Z,99.99
2023-01-05T09:27:37.358Z,99.99
2023-01-05T09:28:37.350Z,99.99
2023-01-05T09:29:37.345Z,99.99
2023-01-05T09:30:44.308Z,99.99
2023-01-05T09:31:38.378Z,99.99
2023-01-05T09:32:37.328Z,99.99
2023-01-05T09:33:37.317Z,99.99
2023-01-05T09:34:37.272Z,99.99
2023-01-05T09:35:37.286Z,99.99
2023-01-05T09:36:37.292Z,99.99
2023-01-05T09:37:37.266Z,99.99
2023-01-05T09:38:39.712Z,99.99
2023-01-05T09:39:38.215Z,99.99
2023-01-05T09:40:37.232Z,99.99
2023-01-05T09:41:37.201Z,99.99
2023-01-05T09:42:37.189Z,99.99
2023-01-05T09:43:37.202Z,99.99
2023-01-05T09:44:37.159Z,99.99
2023-01-05T09:45:37.270Z,99.99
2023-01-05T09:46:37.237Z,99.99
2023-01-05T09:47:37.124Z,99.99
2023-01-05T09:48:37.136Z,99.99
2023-01-05T09:49:37.102Z,99.99
2023-01-05T09:50:37.108Z,99.99
2023-01-05T09:51:37.087Z,99.99
2023-01-05T09:52:38.635Z,99.99
2023-01-05T09:53:37.085Z,99.99
2023-01-05T09:54:37.055Z,99.99
2023-01-05T09:55:37.043Z,99.99
2023-01-05T09:57:38.025Z,99.99
2023-01-05T09:58:37.025Z,99.99
2023-01-05T09:59:36.993Z,99.99
2023-01-05T10:00:36.998Z,99.99
2023-01-05T10:01:37.146Z,99.99
2023-01-05T10:02:36.975Z,99.99
2023-01-05T10:04:03.033Z,99.99
2023-01-05T10:04:38.069Z,99.99
2023-01-05T10:05:37.145Z,99.99
2023-01-05T10:06:36.936Z,99.99
2023-01-05T10:07:36.901Z,99.99
2023-01-05T10:08:36.892Z,99.99
2023-01-05T10:09:36.880Z,99.99
2023-01-05T10:10:36.879Z,99.99
2023-01-05T10:11:36.878Z,99.99
2023-01-05T10:12:36.854Z,99.99
2023-01-05T10:13:36.835Z,99.99
2023-01-05T10:14:36.828Z,99.99
2023-01-05T10:15:36.901Z,99.99
2023-01-05T10:16:36.869Z,99.99
2023-01-05T10:17:42.343Z,99.99
2023-01-05T10:18:37.779Z,99.99
2023-01-05T10:19:36.766Z,99.99
2023-01-05T10:20:36.766Z,99.99
2023-01-05T10:21:36.747Z,99.99
2023-01-05T10:22:38.919Z,99.76
2023-01-05T10:23:36.747Z,99.99
2023-01-05T10:24:36.715Z,99.96
2023-01-05T10:25:36.705Z,99.99
2023-01-05T10:27:13.922Z,99.99
2023-01-05T10:27:37.721Z,99.45
2023-01-05T10:28:36.666Z,99.99
2023-01-05T10:29:36.651Z,99.91
2023-01-05T10:30:36.758Z,99.96
2023-01-05T10:31:36.628Z,99.99
2023-01-05T10:32:49.212Z,99.91
2023-01-05T10:33:41.621Z,99.86
2023-01-05T10:34:37.602Z,99.61
2023-01-05T10:36:03.194Z,99.99
2023-01-05T10:37:08.562Z,99.99
2023-01-05T10:37:37.561Z,99.99
2023-01-05T10:38:36.572Z,99.76
2023-01-05T10:39:36.568Z,99.99
2023-01-05T10:40:36.543Z,99.99
2023-01-05T10:41:36.517Z,99.99
2023-01-05T10:42:36.526Z,99.99
2023-01-05T10:43:36.521Z,99.99
2023-01-05T10:44:36.517Z,99.99
2023-01-05T10:45:46.040Z,99.99
2023-01-05T10:46:42.589Z,99.99
2023-01-05T10:47:37.527Z,99.99
2023-01-05T10:48:36.442Z,99.99
2023-01-05T10:49:36.541Z,99.99
2023-01-05T10:50:36.440Z,99.99
2023-01-05T10:51:36.409Z,99.99
2023-01-05T10:52:36.449Z,99.99
2023-01-05T10:53:36.396Z,99.99
2023-01-05T10:54:36.375Z,99.99
2023-01-05T10:55:36.375Z,99.99
2023-01-05T10:56:36.353Z,99.99
2023-01-05T10:57:37.143Z,99.99
2023-01-05T10:58:36.331Z,99.99
2023-01-05T10:59:36.347Z,99.99
2023-01-05T11:00:36.302Z,99.99
2023-01-05T11:01:36.415Z,99.99
2023-01-05T11:02:36.548Z,99.99
2023-01-05T11:04:14.974Z,99.99
2023-01-05T11:04:37.328Z,99.99
2023-01-05T11:05:36.497Z,99.99
2023-01-05T11:06:36.241Z,99.99
2023-01-05T11:07:36.229Z,99.99
2023-01-05T11:08:36.223Z,99.99
2023-01-05T11:09:36.218Z,99.99
2023-01-05T11:10:36.187Z,99.99
2023-01-05T11:11:36.185Z,99.99
2023-01-05T11:12:36.200Z,99.99
2023-01-05T11:13:36.178Z,99.99
2023-01-05T11:14:36.150Z,99.99
2023-01-05T11:15:36.175Z,99.61
2023-01-05T11:16:36.129Z,99.51
2023-01-05T11:17:36.112Z,99.91
2023-01-05T11:18:36.170Z,99.99
2023-01-05T11:19:36.119Z,99.99
2023-01-05T11:20:36.081Z,99.41
2023-01-05T11:21:36.195Z,99.91
2023-01-05T11:22:36.057Z,99.99
2023-01-05T11:23:36.054Z,99.99
2023-01-05T11:24:36.055Z,99.51
2023-01-05T11:25:36.028Z,99.61
2023-01-05T11:26:36.035Z,99.71
2023-01-05T11:27:36.010Z,99.20
2023-01-05T11:28:36.007Z,99.41
2023-01-05T11:29:35.999Z,99.51
2023-01-05T11:30:36.032Z,98.90
2023-01-05T11:31:36.034Z,99.10
2023-01-05T11:32:35.947Z,98.90
2023-01-05T11:33:35.967Z,98.90
2023-01-05T11:34:35.921Z,99.10
2023-01-05T11:35:35.921Z,98.58
2023-01-05T11:36:35.911Z,98.90
2023-01-05T11:37:36.009Z,98.54
2023-01-05T11:38:35.890Z,98.74
2023-01-05T11:39:35.873Z,98.38
2023-01-05T11:40:35.899Z,97.97
2023-01-05T11:41:35.865Z,97.82
2023-01-05T11:42:35.849Z,98.24
2023-01-05T11:43:35.829Z,98.24
2023-01-05T11:44:35.808Z,98.54
2023-01-05T11:45:35.833Z,98.24
2023-01-05T11:46:35.828Z,98.24
2023-01-05T11:47:43.293Z,97.92
2023-01-05T11:48:35.799Z,97.62
2023-01-05T11:49:35.754Z,97.62
2023-01-05T11:50:35.753Z,97.41
2023-01-05T11:51:35.758Z,97.52
2023-01-05T11:52:35.732Z,97.52
2023-01-05T11:53:35.825Z,97.72
2023-01-05T11:54:35.725Z,97.52
2023-01-05T11:55:35.687Z,97.41
2023-01-05T11:56:35.688Z,97.21
2023-01-05T11:57:35.695Z,97.72
2023-01-05T11:58:35.659Z,97.82
2023-01-05T11:59:35.647Z,97.92
2023-01-05T12:00:35.675Z,97.31
2023-01-05T12:01:35.772Z,97.41
2023-01-05T12:02:35.661Z,97.11
2023-01-05T12:03:35.666Z,96.59
2023-01-05T12:04:35.663Z,96.70
2023-01-05T12:05:35.575Z,97.52
2023-01-05T12:06:35.567Z,97.21
2023-01-05T12:07:35.590Z,97.31
2023-01-05T12:08:35.548Z,96.80
2023-01-05T12:09:36.140Z,97.21
2023-01-05T12:10:35.575Z,96.91
2023-01-05T12:11:35.542Z,97.00
2023-01-05T12:12:35.545Z,97.00
2023-01-05T12:13:35.480Z,96.70
2023-01-05T12:14:35.484Z,96.39
2023-01-05T12:15:35.470Z,96.33
2023-01-05T12:16:35.574Z,96.29
2023-01-05T12:17:35.468Z,96.08
2023-01-05T12:18:35.440Z,95.88
2023-01-05T12:19:35.429Z,96.49
2023-01-05T12:20:35.405Z,96.70
2023-01-05T12:21:35.407Z,97.11
2023-01-05T12:22:35.383Z,97.11
2023-01-05T12:23:35.376Z,97.00
2023-01-05T12:24:35.365Z,96.80
2023-01-05T12:25:35.467Z,96.91
2023-01-05T12:26:35.348Z,97.11
2023-01-05T12:27:35.333Z,97.52
2023-01-05T12:28:41.504Z,97.62
2023-01-05T12:34:02.063Z,97.52
2023-01-05T12:34:36.251Z,97.62
2023-01-05T12:35:35.234Z,97.52
2023-01-05T12:36:35.237Z,96.70
2023-01-05T12:37:35.227Z,97.41
2023-01-05T12:38:35.206Z,96.70
2023-01-05T12:39:35.220Z,97.41
2023-01-05T12:40:35.184Z,97.31
2023-01-05T12:41:35.291Z,97.11
2023-01-05T12:42:35.156Z,97.31
2023-01-05T12:43:35.167Z,97.00
2023-01-05T12:44:35.135Z,96.91
2023-01-05T12:45:35.131Z,97.21
2023-01-05T12:46:35.220Z,96.91
2023-01-05T12:47:35.111Z,97.00
2023-01-05T12:48:35.087Z,97.11
2023-01-05T12:49:35.092Z,96.91
2023-01-05T12:50:35.074Z,97.00
2023-01-05T12:51:35.113Z,97.31
2023-01-05T12:52:35.044Z,97.41
2023-01-05T12:53:35.043Z,97.41
2023-01-05T12:54:35.037Z,97.21
2023-01-05T12:55:35.022Z,97.62
2023-01-05T12:56:35.007Z,97.41
2023-01-05T12:57:35.105Z,97.41
2023-01-05T12:58:35.002Z,97.11